Time;durP1;ratioP1;P1;durP2;ratioP2;P2;SDS_P1;SDS_P2;PMS_P1;PMS_P2;Temp;Humidity;BMP_temperature;BMP_pressure;BME280_temperature;BME280_humidity;BME280_pressure;Samples;Min_cycle;Max_cycle;Signal;HPM_P1;HPM_P2
2022/04/05 00:00:49;;;;;;;;;14.00;14.00;;;;;22.36;27.73;100876.81;5054894;28;45417;-76
2022/04/05 00:03:14;;;;;;;;;17.00;13.33;;;;;22.59;27.64;100921.22;5054735;28;45443;-76
2022/04/05 00:05:39;;;;;;;;;16.00;14.00;;;;;23.23;26.68;100913.03;5054877;28;45315;-77
2022/04/05 00:08:05;;;;;;;;;15.67;15.67;;;;;22.78;27.33;100878.28;5054463;28;46333;-76
2022/04/05 00:10:30;;;;;;;;;14.67;13.33;;;;;23.10;26.92;100927.84;5058038;28;45511;-76
2022/04/05 00:12:55;;;;;;;;;13.00;10.67;;;;;22.59;27.82;100900.47;5058399;28;45472;-76
2022/04/05 00:15:21;;;;;;;;;15.00;14.00;;;;;23.00;27.73;100910.13;5058317;28;45535;-76
2022/04/05 00:17:46;;;;;;;;;16.00;15.00;;;;;23.01;27.53;100914.59;5058166;28;46375;-76
2022/04/05 00:20:12;;;;;;;;;19.67;16.00;;;;;21.97;28.91;100900.34;5058140;28;45380;-76
2022/04/05 00:22:37;;;;;;;;;16.00;14.67;;;;;22.25;28.75;100897.81;5057737;28;45389;-75
2022/04/05 00:25:03;;;;;;;;;17.00;14.33;;;;;22.69;28.67;100902.91;5074086;28;45337;-76
2022/04/05 00:27:28;;;;;;;;;17.00;15.00;;;;;22.59;28.33;100916.69;5057863;28;46548;-76
2022/04/05 00:29:56;;;;;;;;;13.33;12.33;;;;;21.64;30.03;100865.19;5058197;28;45368;-75
2022/04/05 00:32:22;;;;;;;;;15.00;14.33;;;;;22.52;29.31;100876.38;5058245;28;45348;-75
2022/04/05 00:34:47;;;;;;;;;11.00;10.00;;;;;22.20;30.09;100911.44;5057833;28;45371;-76
2022/04/05 00:37:12;;;;;;;;;17.33;15.67;;;;;22.88;29.44;100905.94;5057790;28;46147;-76
2022/04/05 00:39:38;;;;;;;;;15.67;15.00;;;;;22.14;29.80;100859.34;5057790;28;45365;-76
2022/04/05 00:42:04;;;;;;;;;15.00;14.00;;;;;22.32;30.19;100903.91;5058149;28;45371;-76
2022/04/05 00:44:29;;;;;;;;;18.00;14.33;;;;;22.56;29.57;100911.38;5058027;28;45441;-76
2022/04/05 00:46:55;;;;;;;;;13.00;13.00;;;;;22.75;29.41;100911.72;5057378;28;51255;-75
2022/04/05 00:49:30;;;;;;;;;14.00;13.67;;;;;22.24;30.05;100861.78;5057903;28;45338;-75
2022/04/05 00:51:55;;;;;;;;;14.33;13.67;;;;;22.65;30.05;100899.41;5057584;28;45503;-76
2022/04/05 00:54:25;;;;;;;;;10.33;10.33;;;;;22.94;29.76;100893.13;5057650;28;45262;-76
2022/04/05 00:56:53;;;;;;;;;12.33;12.33;;;;;22.03;31.05;100897.50;5057559;28;46451;-75
2022/04/05 00:59:21;;;;;;;;;8.50;8.00;;;;;22.20;30.52;100911.44;5057735;28;45390;-76
2022/04/05 01:01:46;;;;;;;;;14.33;13.00;;;;;22.29;30.54;100880.56;5057419;28;45454;-76
2022/04/05 01:04:12;;;;;;;;;14.67;14.33;;;;;22.34;30.43;100872.38;5057462;28;45383;-76
2022/04/05 01:06:44;;;;;;;;;13.00;13.00;;;;;22.31;30.62;100894.06;5056941;28;46621;-76
2022/04/05 01:09:10;;;;;;;;;14.67;14.67;;;;;22.38;30.68;100893.84;5057512;28;45333;-76
2022/04/05 01:11:36;;;;;;;;;15.33;14.33;;;;;22.52;30.69;100898.88;5057368;28;45385;-76
2022/04/05 01:14:01;;;;;;;;;12.33;12.33;;;;;22.14;30.66;100873.78;5057584;28;45364;-76
2022/04/05 01:16:27;;;;;;;;;10.00;8.67;;;;;22.62;30.37;100904.91;5056955;28;46548;-76
2022/04/05 01:18:52;;;;;;;;;11.67;11.67;;;;;22.56;30.31;100887.03;5055985;28;45317;-76
2022/04/05 01:21:18;;;;;;;;;16.00;15.00;;;;;22.87;29.77;100887.94;5057054;28;45367;-77
2022/04/05 01:24:12;;;;;;;;;13.33;12.00;;;;;22.94;29.67;100885.03;5057094;28;45396;-77
2022/04/05 01:26:49;;;;;;;;;11.33;11.33;;;;;23.04;29.33;100860.41;5056971;28;45487;-77
2022/04/05 01:29:16;;;;;;;;;13.67;13.67;;;;;23.24;29.32;100876.91;5057160;28;45529;-77
2022/04/05 01:31:47;;;;;;;;;15.33;14.67;;;;;23.13;29.83;100873.66;5057065;28;45571;-77
2022/04/05 01:34:14;;;;;;;;;14.33;14.33;;;;;23.62;28.88;100873.88;5056729;28;45353;-77
2022/04/05 01:36:45;;;;;;;;;14.00;13.67;;;;;23.20;29.42;100877.06;5056777;28;45444;-77
2022/04/05 01:39:15;;;;;;;;;13.00;11.67;;;;;23.25;29.52;100872.41;5056912;28;45308;-77
2022/04/05 01:41:41;;;;;;;;;15.00;15.00;;;;;22.74;30.46;100858.59;5056625;28;45349;-77
2022/04/05 01:44:07;;;;;;;;;10.67;10.67;;;;;22.94;30.58;100871.50;5056991;28;45545;-77
2022/04/05 01:46:33;;;;;;;;;14.33;14.00;;;;;22.77;31.01;100871.13;5056734;28;46193;-77
2022/04/05 01:48:59;;;;;;;;;17.33;16.00;;;;;22.66;31.23;100865.13;5056368;28;45333;-77
2022/04/05 01:51:24;;;;;;;;;10.33;10.33;;;;;22.17;31.50;100821.47;5057143;28;45316;-77
2022/04/05 01:53:50;;;;;;;;;14.00;14.00;;;;;22.65;31.03;100861.53;5056773;28;45336;-77
2022/04/05 01:56:15;;;;;;;;;13.33;11.33;;;;;22.63;30.92;100851.69;5056376;28;46153;-77
2022/04/05 01:58:41;;;;;;;;;16.00;16.00;;;;;23.45;30.02;100863.63;5056333;28;47967;-77
2022/04/05 02:01:06;;;;;;;;;16.00;15.00;;;;;22.68;30.76;100857.88;5056717;28;45352;-77
2022/04/05 02:03:32;;;;;;;;;14.67;14.00;;;;;22.77;30.81;100866.59;5056352;28;45508;-77
2022/04/05 02:05:57;;;;;;;;;17.67;15.67;;;;;22.93;30.67;100858.00;5056439;28;45402;-77
2022/04/05 02:08:23;;;;;;;;;15.00;14.00;;;;;23.09;30.16;100839.47;5056743;28;45471;-77
2022/04/05 02:10:49;;;;;;;;;18.00;14.33;;;;;22.99;29.88;100821.75;5056517;28;45437;-77
2022/04/05 02:13:14;;;;;;;;;14.00;14.00;;;;;23.07;30.16;100852.19;5056541;28;45816;-77
2022/04/05 02:15:40;;;;;;;;;19.00;16.00;;;;;23.14;30.24;100853.78;5056124;28;45404;-77
2022/04/05 02:18:05;;;;;;;;;16.33;16.00;;;;;22.73;31.25;100853.22;5055976;28;45487;-77
2022/04/05 02:20:30;;;;;;;;;13.33;11.00;;;;;22.88;30.79;100833.81;5056392;28;45385;-77
2022/04/05 02:22:56;;;;;;;;;15.33;13.67;;;;;23.14;30.45;100802.38;5055990;28;45547;-77
2022/04/05 02:25:21;;;;;;;;;17.33;14.33;;;;;23.55;30.27;100851.53;5056253;28;45434;-77
2022/04/05 02:27:47;;;;;;;;;11.00;11.00;;;;;23.23;30.27;100818.28;5056122;28;45780;-77
2022/04/05 02:30:13;;;;;;;;;14.00;13.00;;;;;23.47;30.39;100853.59;5056359;28;45408;-77
2022/04/05 02:32:38;;;;;;;;;15.67;14.00;;;;;23.00;30.68;100823.53;5055193;28;45434;-77
2022/04/05 02:35:04;;;;;;;;;14.00;14.00;;;;;22.96;31.30;100858.78;5055995;28;45438;-77
2022/04/05 02:37:30;;;;;;;;;16.67;16.67;;;;;23.11;31.36;100849.34;5056147;28;45427;-77
2022/04/05 02:39:55;;;;;;;;;18.33;18.33;;;;;22.88;31.59;100858.16;5055817;28;45477;-77
2022/04/05 02:42:20;;;;;;;;;13.00;9.67;;;;;22.75;32.11;100860.31;5056165;28;45529;-77
2022/04/05 02:44:46;;;;;;;;;14.00;13.67;;;;;22.86;31.54;100848.31;5055594;28;46058;-76
2022/04/05 02:47:12;;;;;;;;;16.00;15.00;;;;;23.29;31.09;100847.88;5055882;28;45253;-76
2022/04/05 02:49:37;;;;;;;;;15.00;15.00;;;;;23.24;31.51;100851.66;5056126;28;45303;-76
2022/04/05 02:52:03;;;;;;;;;10.00;9.33;;;;;23.40;31.17;100823.16;5055823;28;45383;-76
2022/04/05 02:54:30;;;;;;;;;14.67;13.33;;;;;23.47;30.43;100804.88;5055725;28;45515;-76
2022/04/05 02:56:55;;;;;;;;;16.00;16.00;;;;;22.65;32.23;100833.63;5055444;28;45432;-76
2022/04/05 02:59:20;;;;;;;;;18.00;17.33;;;;;22.56;32.55;100846.50;5055796;28;45388;-76
2022/04/05 03:01:46;;;;;;;;;20.00;14.67;;;;;23.06;31.92;100844.97;5055284;28;45551;-76
2022/04/05 03:04:12;;;;;;;;;16.00;16.00;;;;;23.05;31.56;100808.94;5055700;28;45464;-76
2022/04/05 03:06:37;;;;;;;;;16.00;16.00;;;;;23.20;31.57;100836.47;5055497;28;45377;-76
2022/04/05 03:09:02;;;;;;;;;18.00;15.33;;;;;23.05;31.89;100799.91;5055666;28;45471;-77
2022/04/05 03:11:28;;;;;;;;;16.00;14.67;;;;;22.81;31.74;100764.59;5055769;28;45445;-76
2022/04/05 03:13:53;;;;;;;;;21.67;19.00;;;;;23.31;31.96;100833.41;5053938;28;48306;-75
2022/04/05 03:16:19;;;;;;;;;15.33;13.00;;;;;22.81;32.42;100821.38;5055200;28;45479;-77
2022/04/05 03:18:46;;;;;;;;;15.67;15.33;;;;;22.98;32.63;100818.19;5054226;28;45330;-76
2022/04/05 03:21:12;;;;;;;;;18.00;16.33;;;;;23.38;31.93;100832.28;5055708;28;45297;-76
2022/04/05 03:23:39;;;;;;;;;16.00;15.00;;;;;22.82;32.55;100823.16;5055048;28;47138;-76
2022/04/05 03:26:04;;;;;;;;;18.00;14.33;;;;;23.14;32.38;100825.84;5055200;28;45431;-76
2022/04/05 03:28:29;;;;;;;;;16.00;16.00;;;;;22.27;33.04;100753.56;5055421;28;45332;-76
2022/04/05 03:30:55;;;;;;;;;18.67;18.33;;;;;22.77;32.71;100828.72;5054708;28;45565;-76
2022/04/05 03:33:20;;;;;;;;;14.00;13.33;;;;;21.31;35.27;100811.09;5055121;28;45424;-76
2022/04/05 03:35:46;;;;;;;;;17.00;15.33;;;;;22.25;34.10;100839.22;5055157;28;45468;-76
2022/04/05 03:38:11;;;;;;;;;15.67;15.67;;;;;22.75;33.56;100830.56;5055366;28;45432;-76
2022/04/05 03:40:37;;;;;;;;;12.67;10.67;;;;;22.42;34.05;100816.28;5055077;28;45426;-76
2022/04/05 03:43:03;;;;;;;;;15.67;14.33;;;;;22.53;33.81;100821.34;5054001;28;47102;-76
2022/04/05 03:45:29;;;;;;;;;15.33;14.33;;;;;23.04;33.22;100814.41;5054486;28;45660;-76
2022/04/05 03:47:54;;;;;;;;;17.00;15.33;;;;;23.04;33.01;100792.75;5054815;28;45520;-76
2022/04/05 03:50:19;;;;;;;;;15.67;15.67;;;;;23.09;33.08;100801.59;5055313;28;45353;-76
2022/04/05 03:52:45;;;;;;;;;12.67;10.67;;;;;22.97;33.08;100808.28;5054638;28;45502;-75
2022/04/05 03:55:11;;;;;;;;;18.67;16.00;;;;;21.97;34.16;100732.84;5053532;28;45255;-76
2022/04/05 03:57:37;;;;;;;;;15.33;15.00;;;;;22.75;33.40;100798.13;5054964;28;45460;-76
2022/04/05 04:00:03;;;;;;;;;17.33;14.00;;;;;23.19;32.99;100805.81;5054562;28;45514;-76
2022/04/05 04:02:34;;;;;;;;;17.67;17.00;;;;;23.00;32.99;100759.47;5054873;28;46019;-76
2022/04/05 04:04:59;;;;;;;;;20.67;20.00;;;;;22.39;34.45;100808.22;5054514;28;45384;-75
2022/04/05 04:07:25;;;;;;;;;10.33;10.33;;;;;22.79;33.68;100799.81;5054930;28;45325;-75
2022/04/05 04:09:51;;;;;;;;;18.00;15.67;;;;;23.10;33.23;100808.78;5054830;28;45364;-76
2022/04/05 04:12:17;;;;;;;;;19.00;15.00;;;;;22.75;33.01;100745.88;5054634;28;45383;-76
2022/04/05 04:14:43;;;;;;;;;16.00;14.67;;;;;23.20;33.18;100807.56;5054254;28;45505;-76
2022/04/05 04:17:08;;;;;;;;;19.67;18.33;;;;;23.26;33.33;100801.97;5054782;28;45594;-77
2022/04/05 04:19:34;;;;;;;;;19.00;15.67;;;;;23.63;32.34;100808.84;5054768;28;45435;-76
2022/04/05 04:21:59;;;;;;;;;20.00;17.33;;;;;23.83;32.21;100803.66;5054109;28;45459;-76
2022/04/05 04:24:25;;;;;;;;;19.00;16.00;;;;;23.78;32.24;100795.69;5054563;28;45483;-76
2022/04/05 04:26:50;;;;;;;;;16.00;16.00;;;;;23.44;32.42;100805.84;5054609;28;45453;-76
2022/04/05 04:29:15;;;;;;;;;19.33;16.33;;;;;23.50;32.86;100796.66;5054248;28;45398;-76
2022/04/05 04:31:41;;;;;;;;;19.33;16.00;;;;;23.50;32.71;100784.94;5054619;28;46106;-76
2022/04/05 04:34:06;;;;;;;;;21.00;20.00;;;;;23.51;33.38;100805.66;5054035;28;45433;-76
2022/04/05 04:36:32;;;;;;;;;16.00;14.67;;;;;22.90;33.77;100761.59;5054822;28;45483;-76
2022/04/05 04:38:57;;;;;;;;;20.33;19.00;;;;;22.94;33.69;100757.88;5054338;28;45408;-76
2022/04/05 04:41:23;;;;;;;;;14.67;12.67;;;;;23.22;33.69;100804.81;5052835;28;47438;-77
2022/04/05 04:43:52;;;;;;;;;21.00;21.00;;;;;23.50;33.40;100806.59;5054099;28;45516;-76
2022/04/05 04:46:17;;;;;;;;;19.33;18.33;;;;;23.54;33.29;100787.47;5054425;28;45301;-76
2022/04/05 04:48:43;;;;;;;;;18.67;18.67;;;;;23.45;33.60;100783.25;5054391;28;45256;-77
2022/04/05 04:51:09;;;;;;;;;19.00;19.00;;;;;23.37;33.69;100798.88;5054150;28;45439;-76
2022/04/05 04:53:34;;;;;;;;;18.33;16.33;;;;;22.91;33.67;100706.56;5053926;28;45384;-76
2022/04/05 04:56:00;;;;;;;;;18.33;18.33;;;;;23.53;33.59;100801.06;5056815;28;45376;-76
2022/04/05 04:58:25;;;;;;;;;17.67;16.00;;;;;23.16;34.18;100797.78;5057499;28;45463;-76
2022/04/05 05:00:51;;;;;;;;;13.67;13.67;;;;;23.42;33.65;100796.03;5057236;28;45669;-78
2022/04/05 05:03:19;;;;;;;;;16.00;15.00;;;;;23.78;33.43;100795.69;5057300;28;45551;-77
2022/04/05 05:05:45;;;;;;;;;19.00;14.67;;;;;23.54;33.45;100803.72;5057513;28;45501;-77
2022/04/05 05:08:10;;;;;;;;;21.67;18.33;;;;;23.64;33.00;100786.25;5057278;28;45544;-77
2022/04/05 05:10:36;;;;;;;;;16.67;16.67;;;;;23.47;33.45;100764.25;5057429;28;45467;-78
2022/04/05 05:13:01;;;;;;;;;17.33;14.33;;;;;23.00;33.96;100796.50;5056682;28;45179;-78
2022/04/05 05:15:27;;;;;;;;;14.33;14.33;;;;;23.27;34.04;100801.00;5057438;28;45319;-75
2022/04/05 05:17:55;;;;;;;;;19.00;14.67;;;;;22.95;34.12;100719.06;5057259;28;45544;-79
2022/04/05 05:20:21;;;;;;;;;14.00;13.00;;;;;23.32;34.16;100806.28;5057195;28;45436;-78
2022/04/05 05:22:46;;;;;;;;;19.00;18.33;;;;;23.76;33.25;100765.06;5056516;28;45430;-78
2022/04/05 05:25:12;;;;;;;;;19.00;19.00;;;;;24.19;32.65;100800.56;5057282;28;45517;-78
2022/04/05 05:27:38;;;;;;;;;19.33;15.67;;;;;23.70;34.09;100797.78;5056880;28;45463;-75
2022/04/05 05:30:05;;;;;;;;;17.33;14.33;;;;;23.48;33.60;100800.38;5056719;28;45576;-78
2022/04/05 05:32:31;;;;;;;;;20.33;20.33;;;;;23.74;33.57;100802.16;5057203;28;45438;-79
2022/04/05 05:34:56;;;;;;;;;21.67;18.00;;;;;24.10;33.17;100807.22;5056535;28;45365;-76
2022/04/05 05:37:21;;;;;;;;;19.33;18.33;;;;;23.78;33.29;100785.75;5057136;28;45458;-78
2022/04/05 05:39:47;;;;;;;;;20.33;17.33;;;;;23.72;33.78;100804.03;5056786;28;45902;-79
2022/04/05 05:42:13;;;;;;;;;24.67;21.00;;;;;24.14;33.44;100789.91;5056042;28;45428;-78
2022/04/05 05:44:38;;;;;;;;;21.67;21.00;;;;;24.57;32.76;100798.25;5056958;28;45233;-78
2022/04/05 05:47:05;;;;;;;;;24.67;23.67;;;;;24.28;32.42;100744.19;5056256;28;45556;-78
2022/04/05 05:49:31;;;;;;;;;22.00;20.00;;;;;24.32;32.32;100743.13;5056334;28;46278;-78
2022/04/05 05:51:56;;;;;;;;;26.00;20.00;;;;;24.82;32.09;100790.06;5056355;28;45389;-82
2022/04/05 05:54:21;;;;;;;;;26.00;23.67;;;;;24.74;31.20;100708.06;5056589;28;45366;-83
2022/04/05 05:56:47;;;;;;;;;21.00;20.00;;;;;25.17;30.84;100769.63;5056229;28;45433;-85
2022/04/05 05:59:12;;;;;;;;;24.00;21.00;;;;;25.40;30.88;100792.25;5055510;28;46164;-85
2022/04/05 06:01:38;;;;;;;;;20.33;20.33;;;;;24.76;31.04;100717.94;5056471;28;45266;-85
2022/04/05 06:04:03;;;;;;;;;23.67;21.33;;;;;25.30;31.25;100804.41;5056386;28;45381;-85
2022/04/05 06:06:29;;;;;;;;;20.33;20.33;;;;;25.53;30.57;100800.75;5054132;28;45537;-84
2022/04/05 06:08:58;;;;;;;;;24.67;22.00;;;;;25.59;30.15;100786.91;5056099;28;45289;-85
2022/04/05 06:11:24;;;;;;;;;21.67;19.33;;;;;25.44;30.45;100760.41;5049562;28;46414;-85
2022/04/05 06:13:50;;;;;;;;;14.67;12.33;;;;;25.38;30.82;100777.84;5056555;28;45514;-85
2022/04/05 06:16:16;;;;;;;;;20.67;20.67;;;;;25.06;31.22;100811.72;5038260;28;45658;-84
2022/04/05 06:18:42;;;;;;;;;22.33;21.33;;;;;24.96;31.83;100798.56;5047988;28;45661;-84
2022/04/05 06:21:08;;;;;;;;;24.33;21.00;;;;;25.17;31.42;100813.06;5055514;28;45498;-85
2022/04/05 06:23:33;;;;;;;;;18.33;16.00;;;;;24.97;31.72;100819.28;5055542;28;45471;-84
2022/04/05 06:25:59;;;;;;;;;22.67;22.67;;;;;25.06;30.97;100798.16;5054564;28;46619;-84
2022/04/05 06:28:24;;;;;;;;;23.00;19.67;;;;;24.53;32.25;100821.91;5064349;28;46141;-78
2022/04/05 06:30:50;;;;;;;;;24.00;21.00;;;;;23.40;34.26;100834.00;5075541;27;45431;-78
2022/04/05 06:33:18;;;;;;;;;20.33;18.33;;;;;24.16;33.29;100828.69;5038648;28;45492;-79
2022/04/05 06:35:49;;;;;;;;;26.33;24.67;;;;;24.45;32.74;100830.31;5040966;28;45320;-78
2022/04/05 06:38:14;;;;;;;;;18.33;15.33;;;;;24.50;32.22;100835.59;5077462;27;48237;-77
2022/04/05 06:40:43;;;;;;;;;21.00;19.67;;;;;24.46;32.39;100795.97;5048278;28;45478;-78
2022/04/05 06:43:10;;;;;;;;;21.00;20.00;;;;;24.34;32.45;100805.44;5063347;28;45460;-78
2022/04/05 06:45:36;;;;;;;;;22.00;22.00;;;;;24.37;33.17;100832.41;5060063;28;45458;-78
2022/04/05 06:48:02;;;;;;;;;21.00;20.33;;;;;24.52;32.51;100809.28;5047109;27;46035;-78
2022/04/05 06:50:28;;;;;;;;;13.67;13.67;;;;;24.60;32.46;100831.59;5035535;28;45449;-78
2022/04/05 06:52:56;;;;;;;;;23.00;20.33;;;;;24.37;32.90;100845.09;5054102;28;45504;-77
2022/04/05 06:55:22;;;;;;;;;24.00;22.67;;;;;24.26;33.13;100802.13;5055715;28;45233;-78
2022/04/05 06:57:48;;;;;;;;;25.33;25.33;;;;;24.68;32.54;100839.44;5047676;28;46550;-76
2022/04/05 07:00:14;;;;;;;;;22.33;20.33;;;;;24.74;32.73;100846.44;5059077;28;45523;-78
2022/04/05 07:02:41;;;;;;;;;21.67;20.33;;;;;24.56;32.80;100832.63;5043809;28;45504;-76
2022/04/05 07:05:08;;;;;;;;;20.33;19.67;;;;;24.75;32.67;100819.28;5043132;28;45535;-78
2022/04/05 07:07:33;;;;;;;;;29.33;28.33;;;;;24.87;31.78;100812.47;5045394;28;45574;-78
2022/04/05 07:09:59;;;;;;;;;23.67;23.67;;;;;24.91;32.61;100832.22;5040724;28;45378;-78
2022/04/05 07:12:24;;;;;;;;;25.67;23.67;;;;;24.65;32.80;100834.13;5071073;28;45459;-78
2022/04/05 07:14:51;;;;;;;;;23.33;21.00;;;;;24.53;32.81;100830.03;5063984;27;45364;-77
2022/04/05 07:17:17;;;;;;;;;25.67;24.00;;;;;24.76;32.40;100836.44;5063132;28;46003;-77
2022/04/05 07:19:42;;;;;;;;;27.33;23.67;;;;;24.78;32.72;100832.72;5063236;27;45408;-76
2022/04/05 07:22:07;;;;;;;;;21.33;20.00;;;;;25.04;32.31;100821.78;5055077;28;45461;-76
2022/04/05 07:24:33;;;;;;;;;27.33;22.00;;;;;25.07;31.71;100821.66;5055117;28;45525;-76
2022/04/05 07:26:58;;;;;;;;;23.33;22.33;;;;;24.81;32.00;100763.88;5055204;28;45680;-77
2022/04/05 07:29:24;;;;;;;;;22.00;22.00;;;;;24.71;32.11;100809.50;5055005;28;45428;-77
2022/04/05 07:31:49;;;;;;;;;29.33;28.00;;;;;24.56;32.46;100818.19;5055453;28;45393;-77
2022/04/05 07:34:14;;;;;;;;;25.67;22.00;;;;;24.85;32.15;100789.94;5043999;28;45498;-77
2022/04/05 07:36:40;;;;;;;;;31.33;29.67;;;;;24.81;32.14;100823.59;5057276;28;45994;-76
2022/04/05 07:39:06;;;;;;;;;13.67;12.00;;;;;24.97;32.38;100826.56;5052132;28;45658;-78
2022/04/05 07:41:31;;;;;;;;;23.33;21.00;;;;;24.44;32.54;100824.94;5052005;28;45678;-77
2022/04/05 07:43:57;;;;;;;;;26.67;24.33;;;;;24.60;32.47;100806.28;5055380;28;45562;-77
2022/04/05 07:46:22;;;;;;;;;19.67;18.00;;;;;24.77;32.86;100830.06;5056960;28;46609;-77
2022/04/05 07:48:48;;;;;;;;;16.00;16.00;;;;;24.55;32.61;100782.03;5054473;28;45479;-78
2022/04/05 07:51:14;;;;;;;;;20.33;20.33;;;;;24.56;32.48;100789.22;5055767;28;45480;-78
2022/04/05 07:53:39;;;;;;;;;17.67;16.33;;;;;24.88;32.40;100833.25;5050840;28;45395;-77
2022/04/05 07:56:05;;;;;;;;;24.33;19.00;;;;;25.16;32.24;100829.41;5053019;28;56823;-78
2022/04/05 07:58:30;;;;;;;;;22.67;22.67;;;;;24.98;31.98;100829.22;5052355;28;45698;-78
2022/04/05 08:00:56;;;;;;;;;23.67;21.67;;;;;24.66;32.51;100801.50;5054172;28;45435;-77
2022/04/05 08:03:22;;;;;;;;;21.67;20.33;;;;;25.31;32.34;100831.50;5054688;28;45535;-82
2022/04/05 08:05:48;;;;;;;;;22.00;21.67;;;;;25.33;31.43;100807.91;5054026;28;47433;-77
2022/04/05 08:08:14;;;;;;;;;22.33;20.33;;;;;25.41;31.64;100836.59;5057439;28;45697;-78
2022/04/05 08:10:39;;;;;;;;;17.00;15.00;;;;;24.86;32.75;100839.69;5087331;27;45617;-77
2022/04/05 08:13:05;;;;;;;;;22.33;19.67;;;;;24.98;32.49;100833.78;5047119;28;45449;-78
2022/04/05 08:15:30;;;;;;;;;25.67;21.33;;;;;24.85;32.46;100797.19;5055626;28;46337;-76
2022/04/05 08:17:57;;;;;;;;;24.67;22.67;;;;;25.31;32.37;100836.03;5050578;28;45412;-77
2022/04/05 08:20:22;;;;;;;;;23.00;23.00;;;;;25.26;32.13;100824.47;5053618;28;45932;-77
2022/04/05 08:22:48;;;;;;;;;29.33;24.67;;;;;24.90;32.82;100830.47;5051050;28;45298;-77
2022/04/05 08:25:15;;;;;;;;;26.00;23.33;;;;;25.25;32.40;100829.03;5048559;28;46022;-77
2022/04/05 08:27:46;;;;;;;;;23.33;21.00;;;;;24.87;32.47;100809.75;5085899;27;45451;-77
2022/04/05 08:30:15;;;;;;;;;22.67;21.33;;;;;24.82;33.29;100826.22;5052065;28;45791;-77
2022/04/05 08:32:42;;;;;;;;;20.67;20.00;;;;;24.94;33.31;100805.84;5089421;27;45452;-78
2022/04/05 08:35:09;;;;;;;;;22.33;19.33;;;;;25.21;32.38;100838.25;5058453;28;46344;-78
2022/04/05 08:37:35;;;;;;;;;15.33;14.00;;;;;25.13;33.04;100815.97;5065902;28;45501;-78
2022/04/05 08:40:06;;;;;;;;;25.67;19.67;;;;;25.34;32.73;100836.84;5056990;28;45326;-78
2022/04/05 08:42:36;;;;;;;;;16.00;14.00;;;;;24.89;33.27;100801.56;5057075;28;45375;-78
2022/04/05 08:45:04;;;;;;;;;22.00;18.67;;;;;25.17;33.17;100829.38;5055923;28;45540;-78
2022/04/05 08:47:30;;;;;;;;;18.67;14.33;;;;;25.25;32.90;100818.19;5056644;28;45360;-78
2022/04/05 08:49:56;;;;;;;;;24.33;22.67;;;;;25.52;32.23;100802.56;5056915;28;45283;-78
2022/04/05 08:52:22;;;;;;;;;21.33;20.00;;;;;24.74;34.14;100833.78;5057110;28;45553;-78
2022/04/05 08:54:47;;;;;;;;;20.33;18.00;;;;;24.97;33.22;100797.56;5084465;27;48137;-78
2022/04/05 08:57:12;;;;;;;;;20.67;20.00;;;;;24.87;33.43;100804.34;5056310;28;49029;-77
2022/04/05 08:59:38;;;;;;;;;19.67;18.00;;;;;25.84;32.61;100829.31;5051996;28;45757;-78
2022/04/05 09:02:03;;;;;;;;;18.00;17.00;;;;;25.52;32.67;100820.72;5062984;28;45502;-77
2022/04/05 09:04:33;;;;;;;;;19.67;16.33;;;;;26.00;32.55;100833.09;5056035;28;46168;-79
2022/04/05 09:07:18;;;;;;;;;18.00;17.33;;;;;25.48;33.15;100829.94;5089326;27;45580;-78
2022/04/05 09:09:44;;;;;;;;;17.33;17.33;;;;;25.31;33.29;100826.06;5056392;28;45324;-78
2022/04/05 09:12:16;;;;;;;;;20.67;17.67;;;;;25.73;32.41;100827.06;5055556;28;45456;-77
2022/04/05 09:14:42;;;;;;;;;24.00;21.00;;;;;25.88;32.46;100840.94;5048295;28;45953;-77
2022/04/05 09:17:14;;;;;;;;;15.67;15.67;;;;;25.28;33.29;100790.00;5057264;28;45428;-78
2022/04/05 09:19:42;;;;;;;;;22.33;21.00;;;;;26.02;32.49;100830.38;5060595;27;45577;-80
2022/04/05 09:22:08;;;;;;;;;19.33;18.33;;;;;25.81;32.44;100791.41;5057642;28;45605;-80
2022/04/05 09:24:37;;;;;;;;;21.33;20.00;;;;;26.07;32.02;100835.63;5058054;28;45578;-79
2022/04/05 09:27:04;;;;;;;;;23.67;19.67;;;;;26.26;31.87;100828.41;5058280;28;45455;-79
2022/04/05 09:29:51;;;;;;;;;19.33;19.33;;;;;26.17;31.98;100826.06;5058095;28;45754;-79
2022/04/05 09:32:39;;;;;;;;;15.33;11.00;;;;;25.39;33.31;100768.75;5056950;28;45531;-79
2022/04/05 09:35:06;;;;;;;;;21.67;20.00;;;;;25.66;33.03;100821.00;5085879;27;47572;-79
2022/04/05 09:37:36;;;;;;;;;23.00;23.00;;;;;26.24;32.10;100824.84;5056827;28;45400;-79
2022/04/05 09:40:19;;;;;;;;;17.67;15.33;;;;;26.00;32.42;100835.84;5050364;28;45601;-80
2022/04/05 09:43:05;;;;;;;;;18.33;18.00;;;;;26.09;32.83;100844.56;5055475;28;45417;-81
2022/04/05 09:45:58;;;;;;;;;25.00;24.00;;;;;24.37;33.03;100620.06;5057603;28;46481;-80
2022/04/05 09:48:27;;;;;;;;;22.33;19.33;;;;;25.76;32.66;100812.47;5059063;27;45617;-81
2022/04/05 09:50:55;;;;;;;;;21.33;19.33;;;;;25.17;33.92;100845.66;5054351;28;45441;-81
2022/04/05 09:53:21;;;;;;;;;21.67;16.33;;;;;25.84;32.58;100794.88;5056361;28;45309;-81
2022/04/05 09:55:47;;;;;;;;;23.00;21.33;;;;;25.98;33.20;100848.63;5060683;28;46327;-84
2022/04/05 09:58:13;;;;;;;;;25.33;25.33;;;;;25.63;33.06;100777.66;5084636;27;45634;-82
2022/04/05 10:00:39;;;;;;;;;23.00;21.00;;;;;25.87;33.14;100848.22;5058291;28;45326;-81
2022/04/05 10:03:10;;;;;;;;;24.00;24.00;;;;;25.23;33.38;100737.72;5054521;28;45317;-82
2022/04/05 10:05:37;;;;;;;;;22.00;19.00;;;;;26.30;32.32;100837.28;5057149;28;45599;-82
2022/04/05 10:08:04;;;;;;;;;23.33;20.00;;;;;26.54;31.79;100841.59;5054795;28;45413;-79
2022/04/05 10:10:30;;;;;;;;;22.67;18.33;;;;;26.72;31.66;100838.13;5055181;28;45388;-81
2022/04/05 10:12:56;;;;;;;;;22.33;19.33;;;;;26.52;32.32;100797.25;5054301;28;45419;-82
2022/04/05 10:15:22;;;;;;;;;18.33;16.00;;;;;26.63;31.73;100801.31;5048843;28;46046;-79
2022/04/05 10:17:52;;;;;;;;;22.00;20.00;;;;;26.43;32.69;100843.06;5053363;28;45377;-81
2022/04/05 10:20:18;;;;;;;;;27.00;25.33;;;;;26.35;32.63;100844.28;5055786;28;45620;-82
2022/04/05 10:22:50;;;;;;;;;22.33;20.00;;;;;26.42;32.33;100836.72;5054898;28;45412;-82
2022/04/05 10:25:15;;;;;;;;;24.67;22.67;;;;;26.29;31.87;100792.88;5058406;28;45583;-84
2022/04/05 10:27:41;;;;;;;;;23.33;20.67;;;;;26.28;32.18;100790.25;5057058;28;45670;-80
2022/04/05 10:30:21;;;;;;;;;23.00;20.33;;;;;26.19;32.50;100770.69;5055309;28;45349;-79
2022/04/05 10:33:08;;;;;;;;;17.33;16.00;;;;;26.34;32.62;100837.09;5057037;28;45658;-81
2022/04/05 10:35:42;;;;;;;;;19.67;19.67;;;;;26.04;32.55;100762.34;5054622;28;46069;-81
2022/04/05 10:38:12;;;;;;;;;13.67;13.00;;;;;26.63;32.20;100837.56;5054747;28;45486;-82
2022/04/05 10:40:37;;;;;;;;;22.00;20.00;;;;;26.51;32.51;100838.13;5053420;28;45347;-84
2022/04/05 10:43:19;;;;;;;;;22.67;20.67;;;;;26.91;31.94;100832.69;5054808;28;45390;-81
2022/04/05 10:45:45;;;;;;;;;21.33;18.67;;;;;26.40;31.78;100747.97;5053996;28;46627;-83
2022/04/05 10:48:18;;;;;;;;;19.33;17.33;;;;;26.91;31.88;100832.69;5054750;28;45395;-81
2022/04/05 10:51:07;;;;;;;;;21.00;18.67;;;;;26.30;31.94;100794.66;5051975;27;45511;-84
2022/04/05 10:53:35;;;;;;;;;21.67;19.33;;;;;26.16;32.67;100754.50;5047840;28;45621;-82
2022/04/05 10:56:03;;;;;;;;;20.00;18.50;;;;;26.20;32.70;100825.94;5053377;28;45430;-82
2022/04/05 10:58:55;;;;;;;;;26.00;21.33;;;;;26.19;32.92;100776.13;5050328;28;45568;-83
2022/04/05 11:01:23;;;;;;;;;21.67;18.00;;;;;26.24;32.98;100822.13;5042367;28;45681;-83
2022/04/05 11:04:11;;;;;;;;;24.33;21.00;;;;;26.38;32.97;100817.91;5047260;28;45440;-85
2022/04/05 11:06:58;;;;;;;;;21.00;20.33;;;;;26.91;32.10;100814.50;5031721;28;46207;-86
2022/04/05 11:09:53;;;;;;;;;19.00;18.00;;;;;26.79;31.81;100813.28;5041996;28;45477;-86